sensor_id;sensor_type;location;lat;lon;timestamp;pressure;altitude;pressure_sealevel;temperature;humidity
13765;BME280;6953;48.810;9.204;2023-04-06T00:01:24;99023.69;;;2.75;83.33
13765;BME280;6953;48.810;9.204;2023-04-06T00:03:50;98998.66;;;2.74;82.92
13765;BME280;6953;48.810;9.204;2023-04-06T00:06:16;98949.22;;;2.37;82.87
13765;BME280;6953;48.810;9.204;2023-04-06T00:08:41;99018.53;;;2.72;83.02
13765;BME280;6953;48.810;9.204;2023-04-06T00:11:06;99054.13;;;2.59;83.29
13765;BME280;6953;48.810;9.204;2023-04-06T00:13:32;99010.91;;;2.64;83.60
13765;BME280;6953;48.810;9.204;2023-04-06T00:15:57;98994.75;;;2.50;83.60
13765;BME280;6953;48.810;9.204;2023-04-06T00:18:22;99017.13;;;2.53;83.87
13765;BME280;6953;48.810;9.204;2023-04-06T00:20:47;98995.81;;;2.37;84.48
13765;BME280;6953;48.810;9.204;2023-04-06T00:23:13;99004.34;;;2.42;84.31
13765;BME280;6953;48.810;9.204;2023-04-06T00:25:38;99006.16;;;2.39;84.14
13765;BME280;6953;48.810;9.204;2023-04-06T00:28:03;98754.19;;;0.88;84.44
13765;BME280;6953;48.810;9.204;2023-04-06T00:30:29;98992.59;;;2.23;84.76
13765;BME280;6953;48.810;9.204;2023-04-06T00:32:54;99006.28;;;2.30;84.97
13765;BME280;6953;48.810;9.204;2023-04-06T00:35:20;98776.59;;;0.86;84.83
13765;BME280;6953;48.810;9.204;2023-04-06T00:37:46;99005.31;;;2.35;85.25
13765;BME280;6953;48.810;9.204;2023-04-06T00:40:13;99009.63;;;2.38;84.87
13765;BME280;6953;48.810;9.204;2023-04-06T00:42:38;98983.91;;;2.27;85.25
13765;BME280;6953;48.810;9.204;2023-04-06T00:45:04;98999.06;;;2.50;84.95
13765;BME280;6953;48.810;9.204;2023-04-06T00:47:29;98997.34;;;2.49;84.74
13765;BME280;6953;48.810;9.204;2023-04-06T00:49:54;98905.91;;;1.97;85.00
13765;BME280;6953;48.810;9.204;2023-04-06T00:52:20;98690.78;;;0.70;84.85
13765;BME280;6953;48.810;9.204;2023-04-06T00:54:46;98902.59;;;1.86;85.15
13765;BME280;6953;48.810;9.204;2023-04-06T00:57:12;98997.56;;;2.37;85.56
13765;BME280;6953;48.810;9.204;2023-04-06T00:59:38;99021.91;;;2.24;85.76
13765;BME280;6953;48.810;9.204;2023-04-06T01:02:03;98990.78;;;2.27;86.12
13765;BME280;6953;48.810;9.204;2023-04-06T01:04:29;98972.00;;;2.14;86.26
13765;BME280;6953;48.810;9.204;2023-04-06T01:06:55;99009.06;;;2.16;86.12
13765;BME280;6953;48.810;9.204;2023-04-06T01:09:20;98908.97;;;1.66;86.71
13765;BME280;6953;48.810;9.204;2023-04-06T01:11:46;98989.34;;;2.09;86.99
13765;BME280;6953;48.810;9.204;2023-04-06T01:14:11;98986.78;;;2.09;87.39
13765;BME280;6953;48.810;9.204;2023-04-06T01:16:37;98765.56;;;0.75;87.17
13765;BME280;6953;48.810;9.204;2023-04-06T01:19:27;98984.22;;;2.06;87.74
13765;BME280;6953;48.810;9.204;2023-04-06T01:21:53;98690.47;;;0.28;87.98
13765;BME280;6953;48.810;9.204;2023-04-06T01:24:18;98964.66;;;1.88;87.87
13765;BME280;6953;48.810;9.204;2023-04-06T01:26:44;98962.97;;;1.85;88.10
13765;BME280;6953;48.810;9.204;2023-04-06T01:29:10;98983.66;;;1.87;88.15
13765;BME280;6953;48.810;9.204;2023-04-06T01:31:35;98786.28;;;0.69;88.74
13765;BME280;6953;48.810;9.204;2023-04-06T01:34:01;98985.50;;;1.77;89.13
13765;BME280;6953;48.810;9.204;2023-04-06T01:36:26;98985.56;;;1.73;88.79
13765;BME280;6953;48.810;9.204;2023-04-06T01:38:51;98888.13;;;1.14;88.88
13765;BME280;6953;48.810;9.204;2023-04-06T01:41:17;98982.22;;;1.63;89.50
13765;BME280;6953;48.810;9.204;2023-04-06T01:43:44;98984.81;;;1.63;89.78
13765;BME280;6953;48.810;9.204;2023-04-06T01:46:09;98971.97;;;1.59;90.94
13765;BME280;6953;48.810;9.204;2023-04-06T01:48:35;98655.91;;;-0.27;90.51
13765;BME280;6953;48.810;9.204;2023-04-06T01:51:01;98939.66;;;1.25;90.74
13765;BME280;6953;48.810;9.204;2023-04-06T01:53:26;98753.28;;;0.25;90.50
13765;BME280;6953;48.810;9.204;2023-04-06T01:55:51;99003.94;;;1.50;90.52
13765;BME280;6953;48.810;9.204;2023-04-06T01:58:17;98969.50;;;1.50;91.25
13765;BME280;6953;48.810;9.204;2023-04-06T02:00:42;98960.03;;;1.47;91.41
13765;BME280;6953;48.810;9.204;2023-04-06T02:03:07;98989.38;;;1.45;91.54
13765;BME280;6953;48.810;9.204;2023-04-06T02:05:33;98967.00;;;1.44;92.01
13765;BME280;6953;48.810;9.204;2023-04-06T02:08:04;98962.69;;;1.43;92.16
13765;BME280;6953;48.810;9.204;2023-04-06T02:10:30;98964.47;;;1.38;92.27
13765;BME280;6953;48.810;9.204;2023-04-06T02:12:55;98580.16;;;-0.91;91.69
13765;BME280;6953;48.810;9.204;2023-04-06T02:15:20;98970.59;;;1.29;92.63
13765;BME280;6953;48.810;9.204;2023-04-06T02:17:45;98967.22;;;1.24;92.85
13765;BME280;6953;48.810;9.204;2023-04-06T02:20:11;98961.22;;;1.22;93.19
13765;BME280;6953;48.810;9.204;2023-04-06T02:22:36;98964.69;;;1.20;93.40
13765;BME280;6953;48.810;9.204;2023-04-06T02:25:01;98943.31;;;1.07;93.59
13765;BME280;6953;48.810;9.204;2023-04-06T02:27:27;98915.13;;;0.91;93.40
13765;BME280;6953;48.810;9.204;2023-04-06T02:29:52;98961.31;;;1.15;94.08
13765;BME280;6953;48.810;9.204;2023-04-06T02:32:18;98948.53;;;1.03;93.88
13765;BME280;6953;48.810;9.204;2023-04-06T02:34:43;98679.38;;;-0.52;94.65
13765;BME280;6953;48.810;9.204;2023-04-06T02:37:09;98961.28;;;1.18;94.56
13765;BME280;6953;48.810;9.204;2023-04-06T02:39:34;98946.75;;;1.11;95.20
13765;BME280;6953;48.810;9.204;2023-04-06T02:42:00;98947.56;;;1.11;94.81
13765;BME280;6953;48.810;9.204;2023-04-06T02:44:25;98870.59;;;0.71;95.03
13765;BME280;6953;48.810;9.204;2023-04-06T02:46:50;98650.31;;;-0.65;94.70
13765;BME280;6953;48.810;9.204;2023-04-06T02:49:16;98670.72;;;-0.48;94.88
13765;BME280;6953;48.810;9.204;2023-04-06T02:51:41;98939.91;;;1.02;94.94
13765;BME280;6953;48.810;9.204;2023-04-06T02:54:06;98938.25;;;1.00;95.11
13765;BME280;6953;48.810;9.204;2023-04-06T02:56:32;98950.28;;;1.01;94.78
13765;BME280;6953;48.810;9.204;2023-04-06T02:58:57;98887.88;;;0.63;95.27
13765;BME280;6953;48.810;9.204;2023-04-06T03:01:22;98875.06;;;0.56;95.41
13765;BME280;6953;48.810;9.204;2023-04-06T03:03:48;98991.66;;;0.97;95.47
13765;BME280;6953;48.810;9.204;2023-04-06T03:06:13;98971.09;;;0.85;95.14
13765;BME280;6953;48.810;9.204;2023-04-06T03:08:38;98748.59;;;-0.19;95.43
13765;BME280;6953;48.810;9.204;2023-04-06T03:11:04;98560.84;;;-1.33;95.30
13765;BME280;6953;48.810;9.204;2023-04-06T03:13:29;98924.72;;;0.77;95.74
13765;BME280;6953;48.810;9.204;2023-04-06T03:15:55;98847.78;;;0.34;95.66
13765;BME280;6953;48.810;9.204;2023-04-06T03:18:24;98930.72;;;0.81;96.41
13765;BME280;6953;48.810;9.204;2023-04-06T03:20:50;98641.13;;;-0.93;96.62
13765;BME280;6953;48.810;9.204;2023-04-06T03:23:16;98987.44;;;0.88;97.18
13765;BME280;6953;48.810;9.204;2023-04-06T03:25:41;98948.72;;;0.87;97.17
13765;BME280;6953;48.810;9.204;2023-04-06T03:28:07;98734.19;;;-0.38;96.74
13765;BME280;6953;48.810;9.204;2023-04-06T03:30:33;98942.72;;;0.83;96.90
13765;BME280;6953;48.810;9.204;2023-04-06T03:32:58;98807.75;;;-0.03;96.84
13765;BME280;6953;48.810;9.204;2023-04-06T03:35:24;98957.34;;;0.83;96.90
13765;BME280;6953;48.810;9.204;2023-04-06T03:37:49;98958.28;;;0.79;96.94
13765;BME280;6953;48.810;9.204;2023-04-06T03:40:15;98725.75;;;-0.54;96.73
13765;BME280;6953;48.810;9.204;2023-04-06T03:42:41;98910.31;;;0.55;97.22
13765;BME280;6953;48.810;9.204;2023-04-06T03:45:06;98960.81;;;0.82;97.32
13765;BME280;6953;48.810;9.204;2023-04-06T03:47:32;98922.28;;;0.64;97.66
13765;BME280;6953;48.810;9.204;2023-04-06T03:49:57;98971.28;;;0.67;97.61
13765;BME280;6953;48.810;9.204;2023-04-06T03:52:23;98984.13;;;0.76;97.41
13765;BME280;6953;48.810;9.204;2023-04-06T03:54:48;98743.78;;;-0.52;97.68
13765;BME280;6953;48.810;9.204;2023-04-06T03:57:14;98972.16;;;0.66;98.15
13765;BME280;6953;48.810;9.204;2023-04-06T03:59:39;98938.03;;;0.35;97.73
13765;BME280;6953;48.810;9.204;2023-04-06T04:02:05;98673.72;;;-0.92;97.27
13765;BME280;6953;48.810;9.204;2023-04-06T04:04:30;98934.38;;;0.57;97.59
13765;BME280;6953;48.810;9.204;2023-04-06T04:06:55;98335.06;;;-2.92;97.42
13765;BME280;6953;48.810;9.204;2023-04-06T04:09:22;99016.84;;;0.74;97.59
13765;BME280;6953;48.810;9.204;2023-04-06T04:11:47;98933.56;;;0.57;97.68
13765;BME280;6953;48.810;9.204;2023-04-06T04:14:13;98942.94;;;0.62;97.84
13765;BME280;6953;48.810;9.204;2023-04-06T04:16:38;98982.38;;;0.78;97.71
13765;BME280;6953;48.810;9.204;2023-04-06T04:19:04;98963.56;;;0.65;97.63
13765;BME280;6953;48.810;9.204;2023-04-06T04:21:30;99039.97;;;0.83;98.13
13765;BME280;6953;48.810;9.204;2023-04-06T04:23:56;98976.97;;;1.02;98.25
13765;BME280;6953;48.810;9.204;2023-04-06T04:26:21;98989.81;;;1.07;97.64
13765;BME280;6953;48.810;9.204;2023-04-06T04:28:47;98670.72;;;-0.47;96.09
13765;BME280;6953;48.810;9.204;2023-04-06T04:31:12;98981.66;;;1.42;95.87
13765;BME280;6953;48.810;9.204;2023-04-06T04:33:37;99028.09;;;1.49;94.78
13765;BME280;6953;48.810;9.204;2023-04-06T04:36:03;98974.69;;;1.48;94.26
13765;BME280;6953;48.810;9.204;2023-04-06T04:38:28;98979.72;;;1.59;93.50
13765;BME280;6953;48.810;9.204;2023-04-06T04:40:54;98737.88;;;0.19;93.44
13765;BME280;6953;48.810;9.204;2023-04-06T04:43:20;98968.38;;;1.67;92.96
13765;BME280;6953;48.810;9.204;2023-04-06T04:45:45;98950.31;;;1.66;91.63
13765;BME280;6953;48.810;9.204;2023-04-06T04:48:10;98982.78;;;1.86;91.33
13765;BME280;6953;48.810;9.204;2023-04-06T04:50:35;99008.84;;;1.71;91.02
13765;BME280;6953;48.810;9.204;2023-04-06T04:53:01;99029.34;;;1.86;91.40
13765;BME280;6953;48.810;9.204;2023-04-06T04:55:27;98928.91;;;1.56;90.89
13765;BME280;6953;48.810;9.204;2023-04-06T04:57:52;98956.22;;;1.74;91.18
13765;BME280;6953;48.810;9.204;2023-04-06T05:00:18;98980.03;;;1.97;90.79
13765;BME280;6953;48.810;9.204;2023-04-06T05:02:43;99034.31;;;2.00;90.13
13765;BME280;6953;48.810;9.204;2023-04-06T05:05:09;98899.75;;;1.45;89.97
13765;BME280;6953;48.810;9.204;2023-04-06T05:07:34;98983.34;;;2.06;90.21
13765;BME280;6953;48.810;9.204;2023-04-06T05:09:59;99010.06;;;2.08;89.49
13765;BME280;6953;48.810;9.204;2023-04-06T05:12:25;98875.59;;;1.49;89.45
13765;BME280;6953;48.810;9.204;2023-04-06T05:14:53;98340.13;;;-1.78;88.89
13765;BME280;6953;48.810;9.204;2023-04-06T05:17:18;98993.47;;;2.22;88.82
13765;BME280;6953;48.810;9.204;2023-04-06T05:19:43;98969.41;;;2.16;88.55
13765;BME280;6953;48.810;9.204;2023-04-06T05:22:09;98989.78;;;2.35;87.69
13765;BME280;6953;48.810;9.204;2023-04-06T05:24:35;99046.56;;;2.46;87.37
13765;BME280;6953;48.810;9.204;2023-04-06T05:27:00;99001.59;;;2.53;86.36
13765;BME280;6953;48.810;9.204;2023-04-06T05:29:25;98703.47;;;0.85;85.67
13765;BME280;6953;48.810;9.204;2023-04-06T05:31:51;99011.69;;;2.68;85.43
13765;BME280;6953;48.810;9.204;2023-04-06T05:34:16;99045.28;;;2.74;84.98
13765;BME280;6953;48.810;9.204;2023-04-06T05:36:42;98735.63;;;1.20;84.27
13765;BME280;6953;48.810;9.204;2023-04-06T05:39:07;98998.53;;;2.81;84.41
13765;BME280;6953;48.810;9.204;2023-04-06T05:41:32;98803.66;;;1.74;83.54
13765;BME280;6953;48.810;9.204;2023-04-06T05:43:58;99031.00;;;3.00;83.38
13765;BME280;6953;48.810;9.204;2023-04-06T05:46:23;98840.00;;;2.19;82.56
13765;BME280;6953;48.810;9.204;2023-04-06T05:48:49;98805.66;;;2.09;81.99
13765;BME280;6953;48.810;9.204;2023-04-06T05:51:14;99022.88;;;3.19;81.78
13765;BME280;6953;48.810;9.204;2023-04-06T05:53:39;99048.09;;;3.55;81.19
13765;BME280;6953;48.810;9.204;2023-04-06T05:56:05;99025.41;;;3.66;80.39
13765;BME280;6953;48.810;9.204;2023-04-06T05:58:31;99015.63;;;3.79;79.93
13765;BME280;6953;48.810;9.204;2023-04-06T06:00:58;98842.44;;;2.72;79.46
13765;BME280;6953;48.810;9.204;2023-04-06T06:03:23;98994.63;;;3.89;79.26
13765;BME280;6953;48.810;9.204;2023-04-06T06:05:49;99018.66;;;4.36;79.42
13765;BME280;6953;48.810;9.204;2023-04-06T06:08:14;98745.53;;;3.89;75.27
13765;BME280;6953;48.810;9.204;2023-04-06T06:10:40;99012.59;;;6.27;71.37
13765;BME280;6953;48.810;9.204;2023-04-06T06:13:05;98926.38;;;7.09;66.24
13765;BME280;6953;48.810;9.204;2023-04-06T06:15:31;99010.81;;;8.47;60.52
13765;BME280;6953;48.810;9.204;2023-04-06T06:17:56;99001.19;;;8.90;58.56
13765;BME280;6953;48.810;9.204;2023-04-06T06:20:21;99017.31;;;9.61;55.01
13765;BME280;6953;48.810;9.204;2023-04-06T06:22:47;99007.16;;;9.92;52.20
13765;BME280;6953;48.810;9.204;2023-04-06T06:25:12;99012.88;;;10.56;50.19
13765;BME280;6953;48.810;9.204;2023-04-06T06:27:38;98843.34;;;9.83;49.65
13765;BME280;6953;48.810;9.204;2023-04-06T06:30:04;99036.31;;;11.30;47.54
13765;BME280;6953;48.810;9.204;2023-04-06T06:32:29;99010.72;;;11.67;45.79
13765;BME280;6953;48.810;9.204;2023-04-06T06:34:55;98922.06;;;11.38;43.88
13765;BME280;6953;48.810;9.204;2023-04-06T06:37:20;98935.59;;;11.63;43.25
13765;BME280;6953;48.810;9.204;2023-04-06T06:39:46;99006.47;;;12.60;43.26
13765;BME280;6953;48.810;9.204;2023-04-06T06:42:11;98836.47;;;12.56;39.99
13765;BME280;6953;48.810;9.204;2023-04-06T06:44:36;98962.63;;;13.63;37.90
13765;BME280;6953;48.810;9.204;2023-04-06T06:47:01;99009.81;;;14.09;37.45
13765;BME280;6953;48.810;9.204;2023-04-06T06:49:27;98792.88;;;13.10;36.80
13765;BME280;6953;48.810;9.204;2023-04-06T06:51:52;98974.47;;;14.80;35.23
13765;BME280;6953;48.810;9.204;2023-04-06T06:54:17;99024.78;;;15.31;34.49
13765;BME280;6953;48.810;9.204;2023-04-06T06:56:43;99029.66;;;15.50;34.15
13765;BME280;6953;48.810;9.204;2023-04-06T06:59:08;99013.56;;;15.79;32.58
13765;BME280;6953;48.810;9.204;2023-04-06T07:01:34;99026.53;;;15.69;32.38
13765;BME280;6953;48.810;9.204;2023-04-06T07:03:59;98870.22;;;15.10;32.12
13765;BME280;6953;48.810;9.204;2023-04-06T07:06:25;99019.69;;;16.04;31.28
13765;BME280;6953;48.810;9.204;2023-04-06T07:08:50;99055.56;;;16.21;30.98
13765;BME280;6953;48.810;9.204;2023-04-06T07:11:16;99027.38;;;16.57;30.65
13765;BME280;6953;48.810;9.204;2023-04-06T07:13:42;98970.63;;;16.36;29.77
13765;BME280;6953;48.810;9.204;2023-04-06T07:16:08;99049.91;;;17.11;29.25
13765;BME280;6953;48.810;9.204;2023-04-06T07:18:33;99024.50;;;17.32;28.90
13765;BME280;6953;48.810;9.204;2023-04-06T07:20:59;99056.06;;;17.35;28.61
13765;BME280;6953;48.810;9.204;2023-04-06T07:23:24;99036.00;;;17.54;28.06
13765;BME280;6953;48.810;9.204;2023-04-06T07:25:49;98887.94;;;16.79;27.95
13765;BME280;6953;48.810;9.204;2023-04-06T07:28:17;99011.59;;;17.73;28.03
13765;BME280;6953;48.810;9.204;2023-04-06T07:30:42;99030.19;;;18.40;26.87
13765;BME280;6953;48.810;9.204;2023-04-06T07:33:08;99050.81;;;19.44;25.77
13765;BME280;6953;48.810;9.204;2023-04-06T07:35:33;99038.63;;;19.62;25.65
13765;BME280;6953;48.810;9.204;2023-04-06T07:38:00;99058.50;;;20.40;24.94
13765;BME280;6953;48.810;9.204;2023-04-06T07:40:25;99043.75;;;21.05;23.76
13765;BME280;6953;48.810;9.204;2023-04-06T07:42:51;99020.47;;;21.45;23.08
13765;BME280;6953;48.810;9.204;2023-04-06T07:45:17;98972.28;;;21.56;22.49
13765;BME280;6953;48.810;9.204;2023-04-06T07:47:43;99042.41;;;22.05;22.28
13765;BME280;6953;48.810;9.204;2023-04-06T07:50:08;99044.25;;;21.76;22.79
13765;BME280;6953;48.810;9.204;2023-04-06T07:52:34;99031.75;;;22.51;21.60
13765;BME280;6953;48.810;9.204;2023-04-06T07:54:59;99066.81;;;23.38;20.93
13765;BME280;6953;48.810;9.204;2023-04-06T07:57:25;99046.06;;;24.10;19.71
13765;BME280;6953;48.810;9.204;2023-04-06T07:59:50;99050.41;;;24.53;19.35
13765;BME280;6953;48.810;9.204;2023-04-06T08:02:16;98846.00;;;23.15;19.49
13765;BME280;6953;48.810;9.204;2023-04-06T08:04:42;99048.31;;;23.97;19.11
13765;BME280;6953;48.810;9.204;2023-04-06T08:07:07;99007.72;;;23.57;19.76
13765;BME280;6953;48.810;9.204;2023-04-06T08:09:33;98851.09;;;23.26;19.44
13765;BME280;6953;48.810;9.204;2023-04-06T08:11:58;99061.22;;;25.03;18.98
13765;BME280;6953;48.810;9.204;2023-04-06T08:14:24;98845.97;;;24.50;18.31
13765;BME280;6953;48.810;9.204;2023-04-06T08:16:49;99049.03;;;25.89;17.94
13765;BME280;6953;48.810;9.204;2023-04-06T08:19:14;99045.53;;;26.05;17.61
13765;BME280;6953;48.810;9.204;2023-04-06T08:21:42;99052.53;;;26.38;17.47
13765;BME280;6953;48.810;9.204;2023-04-06T08:24:08;99008.16;;;26.18;17.42
13765;BME280;6953;48.810;9.204;2023-04-06T08:26:33;99061.09;;;27.49;16.36
13765;BME280;6953;48.810;9.204;2023-04-06T08:28:58;99059.75;;;28.43;15.86
13765;BME280;6953;48.810;9.204;2023-04-06T08:31:24;99055.72;;;28.68;15.67
13765;BME280;6953;48.810;9.204;2023-04-06T08:33:49;98886.22;;;27.98;15.13
13765;BME280;6953;48.810;9.204;2023-04-06T08:36:15;99061.59;;;28.57;15.38
13765;BME280;6953;48.810;9.204;2023-04-06T08:38:41;98984.50;;;28.40;15.49
13765;BME280;6953;48.810;9.204;2023-04-06T08:41:12;98876.75;;;28.16;15.04
13765;BME280;6953;48.810;9.204;2023-04-06T08:43:44;99054.19;;;28.88;15.28
13765;BME280;6953;48.810;9.204;2023-04-06T08:46:12;99059.19;;;29.34;15.00
13765;BME280;6953;48.810;9.204;2023-04-06T08:48:40;99056.69;;;29.18;14.73
13765;BME280;6953;48.810;9.204;2023-04-06T08:51:06;98981.50;;;28.35;15.27
13765;BME280;6953;48.810;9.204;2023-04-06T08:53:31;99049.44;;;29.04;14.77
13765;BME280;6953;48.810;9.204;2023-04-06T08:55:57;99050.16;;;29.27;15.39
13765;BME280;6953;48.810;9.204;2023-04-06T08:58:24;99067.41;;;29.41;14.97
13765;BME280;6953;48.810;9.204;2023-04-06T09:00:50;99057.19;;;29.78;14.29
13765;BME280;6953;48.810;9.204;2023-04-06T09:03:17;99005.00;;;29.63;14.66
13765;BME280;6953;48.810;9.204;2023-04-06T09:05:44;99037.78;;;30.37;13.92
13765;BME280;6953;48.810;9.204;2023-04-06T09:08:10;98841.94;;;29.75;13.69
13765;BME280;6953;48.810;9.204;2023-04-06T09:10:35;99048.38;;;31.74;12.08
13765;BME280;6953;48.810;9.204;2023-04-06T09:13:05;99049.47;;;32.57;11.82
13765;BME280;6953;48.810;9.204;2023-04-06T09:15:31;98877.09;;;32.14;11.70
13765;BME280;6953;48.810;9.204;2023-04-06T09:17:57;98881.28;;;32.23;11.65
13765;BME280;6953;48.810;9.204;2023-04-06T09:20:24;98830.97;;;31.56;11.70
13765;BME280;6953;48.810;9.204;2023-04-06T09:22:56;99040.69;;;32.81;11.19
13765;BME280;6953;48.810;9.204;2023-04-06T09:25:23;98901.44;;;32.66;11.13
13765;BME280;6953;48.810;9.204;2023-04-06T09:28:04;99047.03;;;33.76;10.21
13765;BME280;6953;48.810;9.204;2023-04-06T09:30:32;99028.19;;;33.30;9.67
13765;BME280;6953;48.810;9.204;2023-04-06T09:32:57;98983.06;;;33.10;10.28
13765;BME280;6953;48.810;9.204;2023-04-06T09:35:24;99032.78;;;33.80;10.45
13765;BME280;6953;48.810;9.204;2023-04-06T09:37:52;98970.84;;;33.32;9.60
13765;BME280;6953;48.810;9.204;2023-04-06T09:40:18;99022.75;;;33.74;9.65
13765;BME280;6953;48.810;9.204;2023-04-06T09:42:48;99028.13;;;32.87;10.23
13765;BME280;6953;48.810;9.204;2023-04-06T09:45:18;99021.78;;;31.57;10.45
13765;BME280;6953;48.810;9.204;2023-04-06T09:47:44;98872.69;;;30.57;10.87
13765;BME280;6953;48.810;9.204;2023-04-06T09:50:11;99018.13;;;32.61;9.71
13765;BME280;6953;48.810;9.204;2023-04-06T09:52:41;99019.28;;;33.04;9.75
13765;BME280;6953;48.810;9.204;2023-04-06T09:55:08;99023.38;;;32.11;9.55
13765;BME280;6953;48.810;9.204;2023-04-06T09:57:50;98828.22;;;30.04;10.50
13765;BME280;6953;48.810;9.204;2023-04-06T10:00:21;99015.81;;;31.14;10.42
13765;BME280;6953;48.810;9.204;2023-04-06T10:05:45;99017.47;;;31.69;10.40
13765;BME280;6953;48.810;9.204;2023-04-06T10:08:13;99019.38;;;32.00;9.72
13765;BME280;6953;48.810;9.204;2023-04-06T10:10:38;99004.56;;;32.29;9.71
13765;BME280;6953;48.810;9.204;2023-04-06T10:13:05;99019.81;;;32.56;9.21
13765;BME280;6953;48.810;9.204;2023-04-06T10:15:31;99007.56;;;33.03;9.43
13765;BME280;6953;48.810;9.204;2023-04-06T10:17:57;98994.56;;;33.12;9.11
13765;BME280;6953;48.810;9.204;2023-04-06T10:20:38;99010.44;;;33.28;9.55
13765;BME280;6953;48.810;9.204;2023-04-06T10:23:09;98892.56;;;32.90;9.51
13765;BME280;6953;48.810;9.204;2023-04-06T10:25:39;99027.75;;;34.81;8.77
13765;BME280;6953;48.810;9.204;2023-04-06T10:28:06;99003.22;;;35.35;8.98
13765;BME280;6953;48.810;9.204;2023-04-06T10:30:41;99009.84;;;35.75;8.26
13765;BME280;6953;48.810;9.204;2023-04-06T10:33:20;98847.88;;;34.50;7.97
13765;BME280;6953;48.810;9.204;2023-04-06T10:35:46;99003.97;;;34.88;8.38
13765;BME280;6953;48.810;9.204;2023-04-06T10:38:11;99001.09;;;34.41;8.65
13765;BME280;6953;48.810;9.204;2023-04-06T10:40:40;99012.66;;;34.36;8.61
13765;BME280;6953;48.810;9.204;2023-04-06T10:43:13;98998.19;;;35.50;8.12
13765;BME280;6953;48.810;9.204;2023-04-06T10:45:39;98984.28;;;36.33;8.32
13765;BME280;6953;48.810;9.204;2023-04-06T10:48:16;98988.38;;;36.65;7.66
13765;BME280;6953;48.810;9.204;2023-04-06T10:50:48;98831.78;;;35.66;7.74
13765;BME280;6953;48.810;9.204;2023-04-06T10:53:24;98998.41;;;36.30;7.96
13765;BME280;6953;48.810;9.204;2023-04-06T10:55:51;98798.19;;;34.96;7.72
13765;BME280;6953;48.810;9.204;2023-04-06T10:58:17;98970.50;;;36.62;8.02
13765;BME280;6953;48.810;9.204;2023-04-06T11:00:49;98943.84;;;36.81;7.23
13765;BME280;6953;48.810;9.204;2023-04-06T11:03:15;98991.63;;;36.90;6.96
13765;BME280;6953;48.810;9.204;2023-04-06T11:05:45;98935.88;;;36.79;7.35
13765;BME280;6953;48.810;9.204;2023-04-06T11:08:21;98970.13;;;36.36;7.43
13765;BME280;6953;48.810;9.204;2023-04-06T11:10:46;98800.28;;;34.17;7.67
13765;BME280;6953;48.810;9.204;2023-04-06T11:13:12;98983.13;;;34.94;7.68
13765;BME280;6953;48.810;9.204;2023-04-06T11:15:37;98977.34;;;35.37;8.26
13765;BME280;6953;48.810;9.204;2023-04-06T11:18:06;98975.25;;;36.21;7.60
13765;BME280;6953;48.810;9.204;2023-04-06T11:20:31;98977.66;;;35.88;7.27
13765;BME280;6953;48.810;9.204;2023-04-06T11:22:56;98798.56;;;34.70;8.01
13765;BME280;6953;48.810;9.204;2023-04-06T11:25:24;98967.97;;;35.16;7.62
13765;BME280;6953;48.810;9.204;2023-04-06T11:27:50;98948.25;;;34.96;8.02
13765;BME280;6953;48.810;9.204;2023-04-06T11:30:16;98966.47;;;35.02;8.29
13765;BME280;6953;48.810;9.204;2023-04-06T11:32:43;98786.03;;;33.48;8.62
13765;BME280;6953;48.810;9.204;2023-04-06T11:35:30;98914.25;;;35.16;8.18
13765;BME280;6953;48.810;9.204;2023-04-06T11:37:56;98948.03;;;36.03;7.74
13765;BME280;6953;48.810;9.204;2023-04-06T11:40:22;98940.19;;;36.18;7.29
13765;BME280;6953;48.810;9.204;2023-04-06T11:42:55;98937.53;;;36.80;6.93
13765;BME280;6953;48.810;9.204;2023-04-06T11:45:21;98934.78;;;37.31;6.57
13765;BME280;6953;48.810;9.204;2023-04-06T11:47:55;98785.06;;;37.20;6.54
13765;BME280;6953;48.810;9.204;2023-04-06T11:50:21;98959.13;;;38.87;6.20
13765;BME280;6953;48.810;9.204;2023-04-06T11:52:58;98936.44;;;39.13;6.17
13765;BME280;6953;48.810;9.204;2023-04-06T11:55:24;98927.44;;;37.92;6.49
13765;BME280;6953;48.810;9.204;2023-04-06T11:57:50;98918.53;;;37.13;6.59
13765;BME280;6953;48.810;9.204;2023-04-06T12:00:16;98890.91;;;37.15;7.17
13765;BME280;6953;48.810;9.204;2023-04-06T12:02:45;98918.59;;;37.02;6.63
13765;BME280;6953;48.810;9.204;2023-04-06T12:05:11;98933.09;;;35.76;7.19
13765;BME280;6953;48.810;9.204;2023-04-06T12:07:36;98920.91;;;34.84;7.80
13765;BME280;6953;48.810;9.204;2023-04-06T12:10:02;98917.69;;;35.23;7.85
13765;BME280;6953;48.810;9.204;2023-04-06T12:12:28;98901.44;;;36.10;7.39
13765;BME280;6953;48.810;9.204;2023-04-06T12:14:55;98799.09;;;35.94;6.38
13765;BME280;6953;48.810;9.204;2023-04-06T12:17:20;98865.94;;;36.72;6.73
13765;BME280;6953;48.810;9.204;2023-04-06T12:19:46;98904.13;;;37.18;7.40
13765;BME280;6953;48.810;9.204;2023-04-06T12:22:11;98888.47;;;36.90;6.50
13765;BME280;6953;48.810;9.204;2023-04-06T12:24:36;98923.19;;;36.16;6.95
13765;BME280;6953;48.810;9.204;2023-04-06T12:27:02;98907.69;;;35.17;7.53
13765;BME280;6953;48.810;9.204;2023-04-06T12:29:28;98672.50;;;33.73;8.03
13765;BME280;6953;48.810;9.204;2023-04-06T12:31:53;98868.25;;;34.84;7.51
13765;BME280;6953;48.810;9.204;2023-04-06T12:34:18;98871.78;;;35.02;8.22
13765;BME280;6953;48.810;9.204;2023-04-06T12:36:44;98670.16;;;34.13;7.47
13765;BME280;6953;48.810;9.204;2023-04-06T12:39:09;98676.78;;;34.16;7.77
13765;BME280;6953;48.810;9.204;2023-04-06T12:41:36;98870.59;;;34.80;7.46
13765;BME280;6953;48.810;9.204;2023-04-06T12:44:01;98885.19;;;35.04;7.54
13765;BME280;6953;48.810;9.204;2023-04-06T12:46:27;98840.69;;;35.32;8.30
13765;BME280;6953;48.810;9.204;2023-04-06T12:48:52;98888.19;;;35.84;8.14
13765;BME280;6953;48.810;9.204;2023-04-06T12:51:21;98843.44;;;36.19;7.50
13765;BME280;6953;48.810;9.204;2023-04-06T12:53:47;98875.28;;;36.87;7.41
13765;BME280;6953;48.810;9.204;2023-04-06T12:56:17;98832.78;;;36.45;7.43
13765;BME280;6953;48.810;9.204;2023-04-06T12:58:43;98874.78;;;35.94;7.42
13765;BME280;6953;48.810;9.204;2023-04-06T13:01:10;98862.44;;;35.50;7.17
13765;BME280;6953;48.810;9.204;2023-04-06T13:03:38;98889.13;;;36.01;6.90
13765;BME280;6953;48.810;9.204;2023-04-06T13:06:03;98865.88;;;35.98;7.13
13765;BME280;6953;48.810;9.204;2023-04-06T13:08:29;98866.34;;;35.95;7.19
13765;BME280;6953;48.810;9.204;2023-04-06T13:10:55;98838.19;;;35.31;7.20
13765;BME280;6953;48.810;9.204;2023-04-06T13:13:24;98747.41;;;34.00;7.94
13765;BME280;6953;48.810;9.204;2023-04-06T13:15:51;98850.81;;;33.40;8.99